createdAt,value
2018-11-27T00:00:33.292Z,6.60
2018-11-27T00:03:05.482Z,6.60
2018-11-27T00:05:35.477Z,6.60
2018-11-27T00:08:04.923Z,6.60
2018-11-27T00:10:36.525Z,6.60
2018-11-27T00:13:06.063Z,6.70
2018-11-27T00:15:35.193Z,6.70
2018-11-27T00:18:04.304Z,6.70
2018-11-27T00:20:33.398Z,6.70
2018-11-27T00:23:02.483Z,6.70
2018-11-27T00:25:31.616Z,6.60
2018-11-27T00:28:00.653Z,6.60
2018-11-27T00:30:29.709Z,6.60
2018-11-27T00:32:58.782Z,6.60
2018-11-27T00:35:27.856Z,6.60
2018-11-27T00:37:56.859Z,6.60
2018-11-27T00:40:25.953Z,6.50
2018-11-27T00:42:54.978Z,6.50
2018-11-27T00:45:24.044Z,6.50
2018-11-27T00:47:53.074Z,6.50
2018-11-27T00:50:23.654Z,6.50
2018-11-27T00:52:53.064Z,6.40
2018-11-27T00:55:22.551Z,6.30
2018-11-27T00:57:52.533Z,6.30
2018-11-27T01:00:23.599Z,6.30
2018-11-27T01:02:52.724Z,6.30
2018-11-27T01:05:23.409Z,6.30
2018-11-27T01:07:52.633Z,6.30
2018-11-27T01:10:24.785Z,6.30
2018-11-27T01:12:54.729Z,6.20
2018-11-27T01:15:23.899Z,6.20
2018-11-27T01:17:57.739Z,6.20
2018-11-27T01:20:27.841Z,6.20
2018-11-27T01:22:56.936Z,6.10
2018-11-27T01:25:26.769Z,6.20
2018-11-27T01:27:55.942Z,6.20
2018-11-27T01:30:25.373Z,6.10
2018-11-27T01:32:54.403Z,6.10
2018-11-27T01:35:24.420Z,6.20
2018-11-27T01:37:54.505Z,6.10
2018-11-27T01:40:24.569Z,6.20
2018-11-27T01:42:54.871Z,6.10
2018-11-27T01:45:24.679Z,6.10
2018-11-27T01:47:53.857Z,6.00
2018-11-27T01:50:23.220Z,6.00
2018-11-27T01:52:52.256Z,6.10
2018-11-27T01:55:22.166Z,6.10
2018-11-27T01:57:51.280Z,6.00
2018-11-27T02:00:26.119Z,6.00
2018-11-27T02:02:56.032Z,6.00
2018-11-27T02:05:26.026Z,6.00
2018-11-27T02:07:55.413Z,6.00
2018-11-27T02:10:24.506Z,6.00
2018-11-27T02:12:54.797Z,6.00
2018-11-27T02:15:29.383Z,6.00
2018-11-27T02:18:01.418Z,6.10
2018-11-27T02:20:30.463Z,6.10
2018-11-27T02:22:59.505Z,6.10
2018-11-27T02:25:29.859Z,6.10
2018-11-27T02:27:58.909Z,6.00
2018-11-27T02:30:28.564Z,5.90
2018-11-27T02:32:57.647Z,6.00
2018-11-27T02:35:27.167Z,6.00
2018-11-27T02:37:57.698Z,6.00
2018-11-27T02:40:27.065Z,6.00
2018-11-27T02:42:56.304Z,6.00
2018-11-27T02:45:26.203Z,6.00
2018-11-27T02:47:55.505Z,6.00
2018-11-27T02:50:25.520Z,6.00
2018-11-27T02:52:54.905Z,6.00
2018-11-27T02:55:25.239Z,6.00
2018-11-27T02:57:54.746Z,6.10
2018-11-27T03:00:26.886Z,6.10
2018-11-27T03:02:56.363Z,6.10
2018-11-27T03:05:33.523Z,6.10
2018-11-27T03:08:03.442Z,6.10
2018-11-27T03:10:32.679Z,6.10
2018-11-27T03:13:01.741Z,6.10
2018-11-27T03:15:30.759Z,6.10
2018-11-27T03:17:59.795Z,6.10
2018-11-27T03:20:28.876Z,6.10
2018-11-27T03:22:57.882Z,6.10
2018-11-27T03:25:27.513Z,6.00
2018-11-27T03:27:56.569Z,6.00
2018-11-27T03:30:26.499Z,6.00
2018-11-27T03:32:55.766Z,6.00
2018-11-27T03:35:26.244Z,6.10
2018-11-27T03:37:55.372Z,6.00
2018-11-27T03:40:27.317Z,6.00
2018-11-27T03:42:56.349Z,6.00
2018-11-27T03:45:25.766Z,6.00
2018-11-27T03:47:54.794Z,5.90
2018-11-27T03:50:26.897Z,5.90
2018-11-27T03:52:55.958Z,5.90
2018-11-27T03:55:25.007Z,5.90
2018-11-27T03:57:54.501Z,5.90
2018-11-27T04:00:26.830Z,5.90
2018-11-27T04:02:59.440Z,5.90
2018-11-27T04:05:28.930Z,5.90
2018-11-27T04:07:57.982Z,5.80
2018-11-27T04:10:27.109Z,5.80
2018-11-27T04:12:56.220Z,5.80
2018-11-27T04:15:25.257Z,5.70
2018-11-27T04:17:54.306Z,5.80
2018-11-27T04:20:23.386Z,5.80
2018-11-27T04:22:52.474Z,5.80
2018-11-27T04:25:21.473Z,5.80
2018-11-27T04:27:50.496Z,5.80
2018-11-27T04:30:21.439Z,5.80
2018-11-27T04:32:50.536Z,5.70
2018-11-27T04:35:21.782Z,5.70
2018-11-27T04:37:50.851Z,5.70
2018-11-27T04:40:20.918Z,5.70
2018-11-27T04:42:50.376Z,5.70
2018-11-27T04:45:23.531Z,5.70
2018-11-27T04:47:52.919Z,5.80
2018-11-27T04:50:22.112Z,5.80
2018-11-27T04:52:51.154Z,5.80
2018-11-27T04:55:20.822Z,5.80
2018-11-27T04:57:52.317Z,5.80
2018-11-27T05:00:24.126Z,5.70
2018-11-27T05:02:53.295Z,5.80
2018-11-27T05:05:22.453Z,5.80
2018-11-27T05:07:51.528Z,5.80
2018-11-27T05:10:22.860Z,5.90
2018-11-27T05:12:52.202Z,5.80
2018-11-27T05:15:24.246Z,5.80
2018-11-27T05:17:54.502Z,5.80
2018-11-27T05:20:23.641Z,5.80
2018-11-27T05:22:55.074Z,5.80
2018-11-27T05:25:24.148Z,5.70
2018-11-27T05:27:55.184Z,5.80
2018-11-27T05:30:26.300Z,5.80
2018-11-27T05:32:55.798Z,5.80
2018-11-27T05:35:29.240Z,5.80
2018-11-27T05:37:59.731Z,5.80
2018-11-27T05:40:29.005Z,5.80
2018-11-27T05:42:59.730Z,5.80
2018-11-27T05:45:28.893Z,5.80
2018-11-27T05:47:57.951Z,5.70
2018-11-27T05:50:27.019Z,5.70
2018-11-27T05:52:56.275Z,5.60
2018-11-27T05:55:25.419Z,5.70
2018-11-27T05:57:55.363Z,5.60
2018-11-27T06:00:27.589Z,5.60
2018-11-27T06:02:57.758Z,5.60
2018-11-27T06:05:27.615Z,5.70
2018-11-27T06:07:56.776Z,5.70
2018-11-27T06:10:26.221Z,5.80
2018-11-27T06:12:56.003Z,5.80
2018-11-27T06:15:25.527Z,5.80
2018-11-27T06:17:59.859Z,5.70
2018-11-27T06:20:28.917Z,5.70
2018-11-27T06:22:57.955Z,5.70
2018-11-27T06:25:28.260Z,5.70
2018-11-27T06:28:01.268Z,5.70
2018-11-27T06:30:31.290Z,5.80
2018-11-27T06:33:00.466Z,5.70
2018-11-27T06:35:39.927Z,5.70
2018-11-27T06:38:10.285Z,5.70
2018-11-27T06:40:40.130Z,5.80
2018-11-27T06:43:10.477Z,5.80
2018-11-27T06:45:40.646Z,5.70
2018-11-27T06:48:09.840Z,5.70
2018-11-27T06:50:39.225Z,5.60
2018-11-27T06:53:08.607Z,5.70
2018-11-27T06:55:37.734Z,5.60
2018-11-27T06:58:07.819Z,5.60
2018-11-27T07:00:36.949Z,5.60
2018-11-27T07:03:09.782Z,5.60
2018-11-27T07:05:39.134Z,5.60
2018-11-27T07:08:08.818Z,5.70
2018-11-27T07:10:39.451Z,5.60
2018-11-27T07:13:10.782Z,5.60
2018-11-27T07:15:39.990Z,5.60
2018-11-27T07:18:09.448Z,5.60
2018-11-27T07:20:38.605Z,5.60
2018-11-27T07:23:09.925Z,5.70
2018-11-27T07:25:39.127Z,5.70
2018-11-27T07:28:08.163Z,5.70
2018-11-27T07:30:38.746Z,5.60
2018-11-27T07:33:07.897Z,5.60
2018-11-27T07:35:37.247Z,5.70
2018-11-27T07:38:06.804Z,5.70
2018-11-27T07:40:35.826Z,5.70
2018-11-27T07:43:08.819Z,5.70
2018-11-27T07:45:38.202Z,5.80
2018-11-27T07:48:08.345Z,5.80
2018-11-27T07:50:37.409Z,5.90
2018-11-27T07:53:06.957Z,5.90
2018-11-27T07:55:36.155Z,5.90
2018-11-27T07:58:06.686Z,5.90
2018-11-27T08:00:36.485Z,5.90
2018-11-27T08:03:06.567Z,5.80
2018-11-27T08:05:38.938Z,5.80
2018-11-27T08:08:16.242Z,5.80
2018-11-27T08:10:46.312Z,5.90
2018-11-27T08:13:15.478Z,5.90
2018-11-27T08:15:44.555Z,5.90
2018-11-27T08:18:14.608Z,5.90
2018-11-27T08:20:43.820Z,5.90
2018-11-27T08:23:12.993Z,6.00
2018-11-27T08:25:42.121Z,6.00
2018-11-27T08:28:11.184Z,5.90
2018-11-27T08:30:40.216Z,6.00
2018-11-27T08:33:09.263Z,6.00
2018-11-27T08:35:38.439Z,6.00
2018-11-27T08:38:07.587Z,5.90
2018-11-27T08:40:36.562Z,6.00
2018-11-27T08:43:06.958Z,6.00
2018-11-27T08:45:36.022Z,6.00
2018-11-27T08:48:05.038Z,6.20
2018-11-27T08:50:34.109Z,6.20
2018-11-27T08:53:06.027Z,6.20
2018-11-27T08:55:42.789Z,6.30
2018-11-27T08:58:19.360Z,6.40
2018-11-27T09:00:48.497Z,6.40
2018-11-27T09:03:17.552Z,6.40
2018-11-27T09:05:46.610Z,6.40
2018-11-27T09:08:15.630Z,6.40
2018-11-27T09:10:44.665Z,6.40
2018-11-27T09:13:13.871Z,6.20
2018-11-27T09:15:42.698Z,6.10
2018-11-27T09:18:21.971Z,6.10
2018-11-27T09:20:51.137Z,6.10
2018-11-27T09:23:20.289Z,6.20
2018-11-27T09:25:49.427Z,6.20
2018-11-27T09:28:18.664Z,6.20
2018-11-27T09:30:48.093Z,6.20
2018-11-27T09:33:17.146Z,6.20
2018-11-27T09:35:46.577Z,6.20
2018-11-27T09:38:15.609Z,6.20
2018-11-27T09:40:44.789Z,6.20
2018-11-27T09:43:13.866Z,6.00
2018-11-27T09:45:44.096Z,6.00
2018-11-27T09:48:13.188Z,6.10
2018-11-27T09:50:42.265Z,6.20
2018-11-27T09:53:13.368Z,6.30
2018-11-27T09:55:42.766Z,6.40
2018-11-27T09:58:11.826Z,6.50
2018-11-27T10:00:40.891Z,6.60
2018-11-27T10:03:11.587Z,6.70
2018-11-27T10:05:40.765Z,6.80
2018-11-27T10:08:10.056Z,6.90
2018-11-27T10:10:39.059Z,6.90
2018-11-27T10:13:08.678Z,6.90
2018-11-27T10:15:37.759Z,6.80
2018-11-27T10:18:07.225Z,6.90
2018-11-27T10:20:38.612Z,7.00
2018-11-27T10:23:11.682Z,7.10
2018-11-27T10:25:40.732Z,7.20
2018-11-27T10:28:09.762Z,7.30
2018-11-27T10:30:39.101Z,7.40
2018-11-27T10:33:09.819Z,7.40
2018-11-27T10:35:49.336Z,7.20
2018-11-27T10:38:18.688Z,7.20
2018-11-27T10:40:47.946Z,7.20
2018-11-27T10:45:46.191Z,7.20
2018-11-27T10:46:08.991Z,7.30
2018-11-27T10:48:15.214Z,7.00
2018-11-27T10:50:44.302Z,7.00
2018-11-27T10:53:13.531Z,7.00
2018-11-27T10:55:42.617Z,7.10
2018-11-27T10:58:11.634Z,7.00
2018-11-27T11:00:46.476Z,6.90
2018-11-27T11:03:46.074Z,7.00
2018-11-27T11:06:15.436Z,7.10
2018-11-27T11:08:44.791Z,7.10
2018-11-27T11:11:13.869Z,7.20
2018-11-27T11:13:42.891Z,7.20
2018-11-27T11:16:11.949Z,7.20
2018-11-27T11:18:40.954Z,7.20
2018-11-27T11:21:09.972Z,7.20
2018-11-27T11:23:39.033Z,7.10
2018-11-27T11:26:08.129Z,7.10
2018-11-27T11:28:37.127Z,7.10
2018-11-27T11:31:07.095Z,7.00
2018-11-27T11:33:36.698Z,7.10
2018-11-27T11:36:06.595Z,7.10
2018-11-27T11:38:35.918Z,7.00
2018-11-27T11:41:05.424Z,7.00
2018-11-27T11:43:34.770Z,6.90
2018-11-27T11:46:04.795Z,6.90
2018-11-27T11:48:34.063Z,6.90
2018-11-27T11:51:03.761Z,7.00
2018-11-27T11:53:33.627Z,7.00
2018-11-27T11:56:02.687Z,7.00
2018-11-27T11:58:31.995Z,7.00
2018-11-27T12:01:01.187Z,7.00
2018-11-27T12:03:30.357Z,7.00
2018-11-27T12:05:59.352Z,7.00
2018-11-27T12:08:28.591Z,7.10
2018-11-27T12:10:57.630Z,7.10
2018-11-27T12:13:26.643Z,7.10
2018-11-27T12:15:55.881Z,7.10
2018-11-27T12:18:25.149Z,7.10
2018-11-27T12:20:54.387Z,7.00
2018-11-27T12:23:23.427Z,7.10
2018-11-27T12:25:52.534Z,7.10
2018-11-27T12:28:21.557Z,7.00
2018-11-27T12:30:50.574Z,6.90
2018-11-27T12:33:19.645Z,6.90
2018-11-27T12:35:48.708Z,6.90
2018-11-27T12:38:17.856Z,6.90
2018-11-27T12:40:46.975Z,6.90
2018-11-27T12:43:16.282Z,6.90
2018-11-27T12:45:45.449Z,6.90
2018-11-27T12:48:14.577Z,6.90
2018-11-27T12:50:46.335Z,6.90
2018-11-27T12:53:17.206Z,6.90
2018-11-27T12:55:48.858Z,6.90
2018-11-27T12:58:17.897Z,6.90
2018-11-27T13:00:46.966Z,6.90
2018-11-27T13:03:16.329Z,6.90
2018-11-27T13:05:46.482Z,6.90
2018-11-27T13:08:19.848Z,7.00
2018-11-27T13:10:48.984Z,7.00
2018-11-27T13:13:18.127Z,7.00
2018-11-27T13:15:47.150Z,7.00
2018-11-27T13:18:16.873Z,7.00
2018-11-27T13:20:45.879Z,6.90
2018-11-27T13:23:14.884Z,6.90
2018-11-27T13:25:46.505Z,6.90
2018-11-27T13:28:15.550Z,6.90
2018-11-27T13:30:50.429Z,6.90
2018-11-27T13:33:29.058Z,6.90
2018-11-27T13:35:58.133Z,6.80
2018-11-27T13:38:28.022Z,6.80
2018-11-27T13:40:57.115Z,6.80
2018-11-27T13:43:27.859Z,6.80
2018-11-27T13:45:58.584Z,6.80
2018-11-27T13:48:27.747Z,6.80
2018-11-27T13:50:56.796Z,6.80
2018-11-27T13:53:25.925Z,6.70
2018-11-27T13:55:55.027Z,6.70
2018-11-27T13:58:24.184Z,6.70
2018-11-27T14:00:53.582Z,6.60
2018-11-27T14:03:22.642Z,6.60
2018-11-27T14:05:51.700Z,6.50
2018-11-27T14:08:20.744Z,6.50
2018-11-27T14:10:49.982Z,6.50
2018-11-27T14:13:19.038Z,6.50
2018-11-27T14:15:48.178Z,6.50
2018-11-27T14:18:17.204Z,6.50
2018-11-27T14:20:46.289Z,6.50
2018-11-27T14:23:15.385Z,6.50
2018-11-27T14:25:44.442Z,6.50
2018-11-27T14:28:13.584Z,6.50
2018-11-27T14:30:42.811Z,6.50
2018-11-27T14:33:11.847Z,6.50
2018-11-27T14:35:40.943Z,6.40
2018-11-27T14:38:10.003Z,6.40
2018-11-27T14:40:39.156Z,6.40
2018-11-27T14:43:08.535Z,6.40
2018-11-27T14:45:37.991Z,6.40
2018-11-27T14:48:07.499Z,6.40
2018-11-27T14:50:36.676Z,6.40
2018-11-27T14:53:06.335Z,6.40
2018-11-27T14:55:35.939Z,6.40
2018-11-27T14:58:05.314Z,6.30
2018-11-27T15:00:34.537Z,6.30
2018-11-27T15:03:03.806Z,6.30
2018-11-27T15:05:37.786Z,6.30
2018-11-27T15:08:08.310Z,6.20
2018-11-27T15:10:37.405Z,6.20
2018-11-27T15:13:07.161Z,6.10
2018-11-27T15:15:36.254Z,6.10
2018-11-27T15:18:06.346Z,6.10
2018-11-27T15:20:35.734Z,6.10
2018-11-27T15:23:05.365Z,6.10
2018-11-27T15:25:35.091Z,6.10
2018-11-27T15:28:04.377Z,6.00
2018-11-27T15:30:35.652Z,6.00
2018-11-27T15:33:05.132Z,6.00
2018-11-27T15:35:34.309Z,6.00
2018-11-27T15:38:03.556Z,6.00
2018-11-27T15:40:32.652Z,5.90
2018-11-27T15:43:01.842Z,5.90
2018-11-27T15:45:32.504Z,5.90
2018-11-27T15:48:02.111Z,5.90
2018-11-27T15:50:31.249Z,5.90
2018-11-27T15:53:00.277Z,5.90
2018-11-27T15:55:32.465Z,5.80
2018-11-27T15:58:07.648Z,5.80
2018-11-27T16:00:36.684Z,5.80
2018-11-27T16:03:06.903Z,5.80
2018-11-27T16:05:37.084Z,5.80
2018-11-27T16:08:07.732Z,5.80
2018-11-27T16:10:36.805Z,5.80
2018-11-27T16:13:06.642Z,5.80
2018-11-27T16:15:36.529Z,5.80
2018-11-27T16:18:07.127Z,5.80
2018-11-27T16:20:36.871Z,5.80
2018-11-27T16:23:06.107Z,5.80
2018-11-27T16:25:35.122Z,5.80
2018-11-27T16:28:04.655Z,5.80
2018-11-27T16:30:34.162Z,5.70
2018-11-27T16:33:03.290Z,5.80
2018-11-27T16:35:32.699Z,5.80
2018-11-27T16:38:01.743Z,5.80
2018-11-27T16:40:34.244Z,5.80
2018-11-27T16:43:03.344Z,5.80
2018-11-27T16:45:32.549Z,5.80
2018-11-27T16:48:01.877Z,5.80
2018-11-27T16:50:32.175Z,5.80
2018-11-27T16:53:02.412Z,5.80
2018-11-27T16:55:31.770Z,5.80
2018-11-27T16:58:01.366Z,5.80
2018-11-27T17:00:35.384Z,5.70
2018-11-27T17:03:05.751Z,5.70
2018-11-27T17:05:36.697Z,5.70
2018-11-27T17:08:06.357Z,5.60
2018-11-27T17:10:36.083Z,5.70
2018-11-27T17:13:07.758Z,5.60
2018-11-27T17:15:36.803Z,5.60
2018-11-27T17:18:06.339Z,5.70
2018-11-27T17:20:37.192Z,5.70
2018-11-27T17:23:09.043Z,5.70
2018-11-27T17:25:38.095Z,5.60
2018-11-27T17:28:15.627Z,5.70
2018-11-27T17:30:53.361Z,5.60
2018-11-27T17:33:26.853Z,5.60
2018-11-27T17:35:55.972Z,5.60
2018-11-27T17:38:24.995Z,5.60
2018-11-27T17:40:54.424Z,5.60
2018-11-27T17:43:23.555Z,5.60
2018-11-27T17:45:52.611Z,5.60
2018-11-27T17:48:22.184Z,5.50
2018-11-27T17:50:51.222Z,5.40
2018-11-27T17:53:20.241Z,5.50
2018-11-27T17:55:49.271Z,5.50
2018-11-27T17:58:22.751Z,5.50
2018-11-27T18:00:47.380Z,5.50
2018-11-27T18:03:16.647Z,5.50
2018-11-27T18:05:46.037Z,5.50
2018-11-27T18:08:15.102Z,5.50
2018-11-27T18:10:44.192Z,5.50
2018-11-27T18:13:13.237Z,5.50
2018-11-27T18:15:42.275Z,5.50
2018-11-27T18:18:11.288Z,5.50
2018-11-27T18:20:40.342Z,5.40
2018-11-27T18:23:09.600Z,5.40
2018-11-27T18:25:38.622Z,5.40
2018-11-27T18:28:07.664Z,5.40
2018-11-27T18:30:36.766Z,5.40
2018-11-27T18:33:06.694Z,5.40
2018-11-27T18:35:35.823Z,5.40
2018-11-27T18:38:05.392Z,5.40
2018-11-27T18:40:34.457Z,5.40
2018-11-27T18:43:03.471Z,5.30
2018-11-27T18:45:32.554Z,5.30
2018-11-27T18:48:01.603Z,5.20
2018-11-27T18:50:32.475Z,5.20
2018-11-27T18:53:04.054Z,5.20
2018-11-27T18:55:36.130Z,5.20
2018-11-27T18:58:05.467Z,5.20
2018-11-27T19:00:35.594Z,5.20
2018-11-27T19:03:06.460Z,5.20
2018-11-27T19:05:35.812Z,5.20
2018-11-27T19:08:04.923Z,5.20
2018-11-27T19:10:34.096Z,5.20
2018-11-27T19:13:03.242Z,5.10
2018-11-27T19:15:37.822Z,5.10
2018-11-27T19:18:26.525Z,5.10
2018-11-27T19:20:55.644Z,5.10
2018-11-27T19:23:25.755Z,5.10
2018-11-27T19:25:55.162Z,5.00
2018-11-27T19:28:24.258Z,5.00
2018-11-27T19:30:53.289Z,5.00
2018-11-27T19:33:22.380Z,5.00
2018-11-27T19:35:51.396Z,4.90
2018-11-27T19:38:20.797Z,5.00
2018-11-27T19:40:49.861Z,4.90
2018-11-27T19:43:18.954Z,5.00
2018-11-27T19:45:48.143Z,5.00
2018-11-27T19:48:17.323Z,5.00
2018-11-27T19:50:46.758Z,5.00
2018-11-27T19:53:16.020Z,5.00
2018-11-27T19:55:45.069Z,5.00
2018-11-27T19:58:14.138Z,5.00
2018-11-27T20:00:43.201Z,5.00
2018-11-27T20:03:12.857Z,4.90
2018-11-27T20:05:42.274Z,5.00
2018-11-27T20:08:15.096Z,5.00
2018-11-27T20:10:44.720Z,5.00
2018-11-27T20:13:13.843Z,5.00
2018-11-27T20:15:42.978Z,5.10
2018-11-27T20:18:12.067Z,5.00
2018-11-27T20:20:41.122Z,5.00
2018-11-27T20:23:10.227Z,5.00
2018-11-27T20:25:39.285Z,5.00
2018-11-27T20:28:09.296Z,5.00
2018-11-27T20:30:39.609Z,5.00
2018-11-27T20:33:09.038Z,4.90
2018-11-27T20:35:38.058Z,4.90
2018-11-27T20:38:08.853Z,4.90
2018-11-27T20:40:38.651Z,4.90
2018-11-27T20:43:08.032Z,5.00
2018-11-27T20:45:37.128Z,5.00
2018-11-27T20:48:11.302Z,5.00
2018-11-27T20:50:40.390Z,5.00
2018-11-27T20:53:16.035Z,4.90
2018-11-27T20:55:45.519Z,4.90
2018-11-27T20:58:14.633Z,4.90
2018-11-27T21:00:45.974Z,4.90
2018-11-27T21:03:14.998Z,4.90
2018-11-27T21:05:44.131Z,4.90
2018-11-27T21:08:13.623Z,4.90
2018-11-27T21:10:42.926Z,4.90
2018-11-27T21:13:12.730Z,4.90
2018-11-27T21:15:43.574Z,4.90
2018-11-27T21:18:12.948Z,4.90
2018-11-27T21:20:43.076Z,4.90
2018-11-27T21:23:12.511Z,4.90
2018-11-27T21:25:41.971Z,4.90
2018-11-27T21:28:13.765Z,4.90
2018-11-27T21:30:43.521Z,4.90
2018-11-27T21:33:12.797Z,4.90
2018-11-27T21:35:42.316Z,4.90
2018-11-27T21:38:11.390Z,5.00
2018-11-27T21:40:40.422Z,5.00
2018-11-27T21:43:11.496Z,5.00
2018-11-27T21:45:40.790Z,5.00
2018-11-27T21:48:09.832Z,5.00
2018-11-27T21:50:42.871Z,5.00
2018-11-27T21:53:11.882Z,5.00
2018-11-27T21:55:42.105Z,4.90
2018-11-27T21:58:11.175Z,5.00
2018-11-27T22:00:41.434Z,5.00
2018-11-27T22:03:12.033Z,5.00
2018-11-27T22:05:41.075Z,4.90
2018-11-27T22:08:12.488Z,4.90
2018-11-27T22:10:41.597Z,4.90
2018-11-27T22:13:13.014Z,4.90
2018-11-27T22:15:43.559Z,4.90
2018-11-27T22:18:14.109Z,4.90
2018-11-27T22:20:43.153Z,4.90
2018-11-27T22:23:12.234Z,4.90
2018-11-27T22:25:41.265Z,4.90
2018-11-27T22:28:10.308Z,4.90
2018-11-27T22:30:39.345Z,4.90
2018-11-27T22:33:08.786Z,4.90
2018-11-27T22:35:38.146Z,4.90
2018-11-27T22:38:07.884Z,4.90
2018-11-27T22:40:37.031Z,4.90
2018-11-27T22:43:07.094Z,4.90
2018-11-27T22:45:37.666Z,4.90
2018-11-27T22:48:08.076Z,4.90
2018-11-27T22:50:37.468Z,4.90
2018-11-27T22:53:07.398Z,4.90
2018-11-27T22:55:39.612Z,4.90
2018-11-27T22:58:08.961Z,4.90
2018-11-27T23:00:43.741Z,4.90
2018-11-27T23:03:12.793Z,4.90
2018-11-27T23:05:41.844Z,4.90
2018-11-27T23:08:11.102Z,4.80
2018-11-27T23:10:41.602Z,4.70
2018-11-27T23:13:10.650Z,4.80
2018-11-27T23:15:39.772Z,4.80
2018-11-27T23:18:08.834Z,4.70
2018-11-27T23:20:38.008Z,4.70
2018-11-27T23:23:07.063Z,4.70
2018-11-27T23:25:36.091Z,4.70
2018-11-27T23:28:05.684Z,4.70
2018-11-27T23:30:35.087Z,4.80
2018-11-27T23:33:04.182Z,4.80
2018-11-27T23:35:33.212Z,4.80
2018-11-27T23:38:02.477Z,4.70
2018-11-27T23:40:31.526Z,4.70
2018-11-27T23:43:01.032Z,4.70
2018-11-27T23:45:30.195Z,4.70
2018-11-27T23:47:59.224Z,4.70
2018-11-27T23:50:28.316Z,4.70
2018-11-27T23:52:57.321Z,4.60
2018-11-27T23:55:26.371Z,4.60
2018-11-27T23:57:55.517Z,4.60
